sensor_id;sensor_type;location;lat;lon;timestamp;P1;durP1;ratioP1;P2;durP2;ratioP2
69240;SDS011;56352;55.750;13.198;2024-01-07T00:00:49;3.17;;;1.60;;
69240;SDS011;56352;55.750;13.198;2024-01-07T00:03:16;2.03;;;1.73;;
69240;SDS011;56352;55.750;13.198;2024-01-07T00:05:43;2.30;;;1.25;;
69240;SDS011;56352;55.750;13.198;2024-01-07T00:08:09;3.95;;;2.25;;
69240;SDS011;56352;55.750;13.198;2024-01-07T00:10:36;2.25;;;1.58;;
69240;SDS011;56352;55.750;13.198;2024-01-07T00:13:03;2.45;;;1.52;;
69240;SDS011;56352;55.750;13.198;2024-01-07T00:15:30;1.20;;;1.10;;
69240;SDS011;56352;55.750;13.198;2024-01-07T00:17:57;3.03;;;1.52;;
69240;SDS011;56352;55.750;13.198;2024-01-07T00:20:24;3.25;;;1.45;;
69240;SDS011;56352;55.750;13.198;2024-01-07T00:22:51;5.25;;;1.90;;
69240;SDS011;56352;55.750;13.198;2024-01-07T00:25:18;2.75;;;1.83;;
69240;SDS011;56352;55.750;13.198;2024-01-07T00:27:45;2.40;;;1.65;;
69240;SDS011;56352;55.750;13.198;2024-01-07T00:30:11;3.67;;;1.88;;
69240;SDS011;56352;55.750;13.198;2024-01-07T00:32:38;2.72;;;1.80;;
69240;SDS011;56352;55.750;13.198;2024-01-07T00:35:05;4.40;;;2.25;;
69240;SDS011;56352;55.750;13.198;2024-01-07T00:37:32;3.72;;;2.25;;
69240;SDS011;56352;55.750;13.198;2024-01-07T00:40:01;2.75;;;1.80;;
69240;SDS011;56352;55.750;13.198;2024-01-07T00:42:28;2.95;;;1.70;;
69240;SDS011;56352;55.750;13.198;2024-01-07T00:44:55;2.90;;;1.30;;
69240;SDS011;56352;55.750;13.198;2024-01-07T00:47:22;2.08;;;1.58;;
69240;SDS011;56352;55.750;13.198;2024-01-07T00:49:48;2.38;;;1.35;;
69240;SDS011;56352;55.750;13.198;2024-01-07T00:52:15;1.48;;;1.20;;
69240;SDS011;56352;55.750;13.198;2024-01-07T00:54:42;1.77;;;1.38;;
69240;SDS011;56352;55.750;13.198;2024-01-07T00:57:10;2.35;;;1.55;;
69240;SDS011;56352;55.750;13.198;2024-01-07T00:59:37;4.47;;;1.17;;
69240;SDS011;56352;55.750;13.198;2024-01-07T01:02:04;3.55;;;1.50;;
69240;SDS011;56352;55.750;13.198;2024-01-07T01:04:31;2.00;;;1.40;;
69240;SDS011;56352;55.750;13.198;2024-01-07T01:06:58;2.47;;;1.38;;
69240;SDS011;56352;55.750;13.198;2024-01-07T01:09:27;3.47;;;2.17;;
69240;SDS011;56352;55.750;13.198;2024-01-07T01:11:54;4.43;;;2.08;;
69240;SDS011;56352;55.750;13.198;2024-01-07T01:14:21;3.28;;;2.13;;
69240;SDS011;56352;55.750;13.198;2024-01-07T01:16:48;5.53;;;2.55;;
69240;SDS011;56352;55.750;13.198;2024-01-07T01:19:14;2.53;;;1.90;;
69240;SDS011;56352;55.750;13.198;2024-01-07T01:21:41;2.40;;;1.92;;
69240;SDS011;56352;55.750;13.198;2024-01-07T01:24:08;2.67;;;1.60;;
69240;SDS011;56352;55.750;13.198;2024-01-07T01:26:34;3.35;;;1.65;;
69240;SDS011;56352;55.750;13.198;2024-01-07T01:29:01;3.25;;;1.80;;
69240;SDS011;56352;55.750;13.198;2024-01-07T01:31:28;2.42;;;1.58;;
69240;SDS011;56352;55.750;13.198;2024-01-07T01:33:55;2.35;;;1.58;;
69240;SDS011;56352;55.750;13.198;2024-01-07T01:36:22;2.30;;;1.40;;
69240;SDS011;56352;55.750;13.198;2024-01-07T01:38:49;3.30;;;1.33;;
69240;SDS011;56352;55.750;13.198;2024-01-07T01:41:16;3.42;;;1.60;;
69240;SDS011;56352;55.750;13.198;2024-01-07T01:43:43;2.90;;;1.50;;
69240;SDS011;56352;55.750;13.198;2024-01-07T01:46:09;2.83;;;1.83;;
69240;SDS011;56352;55.750;13.198;2024-01-07T01:48:36;1.67;;;1.17;;
69240;SDS011;56352;55.750;13.198;2024-01-07T01:51:03;1.73;;;1.20;;
69240;SDS011;56352;55.750;13.198;2024-01-07T01:53:30;2.83;;;1.80;;
69240;SDS011;56352;55.750;13.198;2024-01-07T01:55:58;2.28;;;1.50;;
69240;SDS011;56352;55.750;13.198;2024-01-07T01:58:26;3.22;;;1.50;;
69240;SDS011;56352;55.750;13.198;2024-01-07T02:00:55;3.20;;;1.48;;
69240;SDS011;56352;55.750;13.198;2024-01-07T02:03:22;3.80;;;1.20;;
69240;SDS011;56352;55.750;13.198;2024-01-07T02:05:49;1.73;;;1.40;;
69240;SDS011;56352;55.750;13.198;2024-01-07T02:08:17;3.67;;;1.73;;
69240;SDS011;56352;55.750;13.198;2024-01-07T02:10:45;2.35;;;1.50;;
69240;SDS011;56352;55.750;13.198;2024-01-07T02:13:11;2.20;;;1.33;;
69240;SDS011;56352;55.750;13.198;2024-01-07T02:15:38;2.90;;;1.08;;
69240;SDS011;56352;55.750;13.198;2024-01-07T02:18:05;1.38;;;1.23;;
69240;SDS011;56352;55.750;13.198;2024-01-07T02:20:32;1.70;;;1.30;;
69240;SDS011;56352;55.750;13.198;2024-01-07T02:22:59;2.25;;;1.30;;
69240;SDS011;56352;55.750;13.198;2024-01-07T02:25:26;3.10;;;1.40;;
69240;SDS011;56352;55.750;13.198;2024-01-07T02:27:53;2.42;;;1.50;;
69240;SDS011;56352;55.750;13.198;2024-01-07T02:30:19;3.13;;;1.40;;
69240;SDS011;56352;55.750;13.198;2024-01-07T02:32:46;2.92;;;1.35;;
69240;SDS011;56352;55.750;13.198;2024-01-07T02:35:13;3.17;;;1.70;;
69240;SDS011;56352;55.750;13.198;2024-01-07T02:37:40;1.85;;;1.38;;
69240;SDS011;56352;55.750;13.198;2024-01-07T02:40:07;2.38;;;1.23;;
69240;SDS011;56352;55.750;13.198;2024-01-07T02:42:34;1.58;;;1.33;;
69240;SDS011;56352;55.750;13.198;2024-01-07T02:45:01;3.33;;;1.50;;
69240;SDS011;56352;55.750;13.198;2024-01-07T02:47:28;2.22;;;1.33;;
69240;SDS011;56352;55.750;13.198;2024-01-07T02:49:56;2.10;;;1.33;;
69240;SDS011;56352;55.750;13.198;2024-01-07T02:52:23;1.80;;;1.23;;
69240;SDS011;56352;55.750;13.198;2024-01-07T02:54:50;2.80;;;1.50;;
69240;SDS011;56352;55.750;13.198;2024-01-07T02:57:17;2.05;;;1.25;;
69240;SDS011;56352;55.750;13.198;2024-01-07T02:59:43;3.65;;;1.20;;
69240;SDS011;56352;55.750;13.198;2024-01-07T03:02:10;4.10;;;1.40;;
69240;SDS011;56352;55.750;13.198;2024-01-07T03:04:37;1.88;;;1.30;;
69240;SDS011;56352;55.750;13.198;2024-01-07T03:07:03;3.22;;;1.58;;
69240;SDS011;56352;55.750;13.198;2024-01-07T03:09:30;2.80;;;1.65;;
69240;SDS011;56352;55.750;13.198;2024-01-07T03:11:57;1.50;;;1.08;;
69240;SDS011;56352;55.750;13.198;2024-01-07T03:14:23;2.55;;;1.60;;
69240;SDS011;56352;55.750;13.198;2024-01-07T03:16:50;3.35;;;2.10;;
69240;SDS011;56352;55.750;13.198;2024-01-07T03:19:17;2.03;;;1.35;;
69240;SDS011;56352;55.750;13.198;2024-01-07T03:21:44;4.43;;;1.30;;
69240;SDS011;56352;55.750;13.198;2024-01-07T03:24:10;3.72;;;1.35;;
69240;SDS011;56352;55.750;13.198;2024-01-07T03:26:37;3.03;;;1.50;;
69240;SDS011;56352;55.750;13.198;2024-01-07T03:29:04;1.98;;;1.10;;
69240;SDS011;56352;55.750;13.198;2024-01-07T03:31:31;2.25;;;1.17;;
69240;SDS011;56352;55.750;13.198;2024-01-07T03:33:58;2.55;;;1.45;;
69240;SDS011;56352;55.750;13.198;2024-01-07T03:36:25;2.42;;;1.48;;
69240;SDS011;56352;55.750;13.198;2024-01-07T03:38:51;1.73;;;1.45;;
69240;SDS011;56352;55.750;13.198;2024-01-07T03:41:20;2.42;;;1.35;;
69240;SDS011;56352;55.750;13.198;2024-01-07T03:43:47;2.88;;;1.45;;
69240;SDS011;56352;55.750;13.198;2024-01-07T03:46:15;3.05;;;1.13;;
69240;SDS011;56352;55.750;13.198;2024-01-07T03:48:42;1.95;;;1.20;;
69240;SDS011;56352;55.750;13.198;2024-01-07T03:51:09;1.63;;;1.17;;
69240;SDS011;56352;55.750;13.198;2024-01-07T03:53:36;1.90;;;1.27;;
69240;SDS011;56352;55.750;13.198;2024-01-07T03:56:03;2.38;;;0.98;;
69240;SDS011;56352;55.750;13.198;2024-01-07T03:58:30;1.73;;;1.35;;
69240;SDS011;56352;55.750;13.198;2024-01-07T04:00:56;2.78;;;1.33;;
69240;SDS011;56352;55.750;13.198;2024-01-07T04:03:23;1.80;;;1.30;;
69240;SDS011;56352;55.750;13.198;2024-01-07T04:05:50;3.47;;;1.40;;
69240;SDS011;56352;55.750;13.198;2024-01-07T04:08:17;3.05;;;1.38;;
69240;SDS011;56352;55.750;13.198;2024-01-07T04:10:44;1.45;;;1.10;;
69240;SDS011;56352;55.750;13.198;2024-01-07T04:13:11;2.20;;;1.05;;
69240;SDS011;56352;55.750;13.198;2024-01-07T04:15:38;3.22;;;1.33;;
69240;SDS011;56352;55.750;13.198;2024-01-07T04:18:04;2.05;;;1.20;;
69240;SDS011;56352;55.750;13.198;2024-01-07T04:20:32;2.55;;;1.30;;
69240;SDS011;56352;55.750;13.198;2024-01-07T04:22:58;4.07;;;1.45;;
69240;SDS011;56352;55.750;13.198;2024-01-07T04:25:25;3.22;;;1.10;;
69240;SDS011;56352;55.750;13.198;2024-01-07T04:27:52;1.42;;;1.30;;
69240;SDS011;56352;55.750;13.198;2024-01-07T04:30:18;1.50;;;0.90;;
69240;SDS011;56352;55.750;13.198;2024-01-07T04:32:45;2.08;;;1.20;;
69240;SDS011;56352;55.750;13.198;2024-01-07T04:35:12;2.10;;;1.42;;
69240;SDS011;56352;55.750;13.198;2024-01-07T04:37:39;1.13;;;0.82;;
69240;SDS011;56352;55.750;13.198;2024-01-07T04:40:05;1.48;;;0.95;;
69240;SDS011;56352;55.750;13.198;2024-01-07T04:42:33;2.25;;;1.20;;
69240;SDS011;56352;55.750;13.198;2024-01-07T04:45:00;1.67;;;1.10;;
69240;SDS011;56352;55.750;13.198;2024-01-07T04:47:31;2.40;;;0.90;;
69240;SDS011;56352;55.750;13.198;2024-01-07T04:50:01;1.85;;;0.90;;
69240;SDS011;56352;55.750;13.198;2024-01-07T04:52:29;2.35;;;1.30;;
69240;SDS011;56352;55.750;13.198;2024-01-07T04:54:55;1.17;;;1.00;;
69240;SDS011;56352;55.750;13.198;2024-01-07T04:57:22;1.80;;;1.15;;
69240;SDS011;56352;55.750;13.198;2024-01-07T04:59:49;1.80;;;1.20;;
69240;SDS011;56352;55.750;13.198;2024-01-07T05:02:16;4.40;;;1.70;;
69240;SDS011;56352;55.750;13.198;2024-01-07T05:04:43;2.45;;;1.30;;
69240;SDS011;56352;55.750;13.198;2024-01-07T05:07:10;1.80;;;1.10;;
69240;SDS011;56352;55.750;13.198;2024-01-07T05:09:37;2.78;;;1.33;;
69240;SDS011;56352;55.750;13.198;2024-01-07T05:12:04;5.38;;;1.20;;
69240;SDS011;56352;55.750;13.198;2024-01-07T05:14:31;3.25;;;1.30;;
69240;SDS011;56352;55.750;13.198;2024-01-07T05:16:57;2.90;;;0.93;;
69240;SDS011;56352;55.750;13.198;2024-01-07T05:19:24;3.72;;;1.30;;
69240;SDS011;56352;55.750;13.198;2024-01-07T05:21:51;1.88;;;1.27;;
69240;SDS011;56352;55.750;13.198;2024-01-07T05:24:19;3.25;;;1.42;;
69240;SDS011;56352;55.750;13.198;2024-01-07T05:26:46;4.80;;;1.60;;
69240;SDS011;56352;55.750;13.198;2024-01-07T05:29:12;1.88;;;1.30;;
69240;SDS011;56352;55.750;13.198;2024-01-07T05:31:39;2.42;;;1.00;;
69240;SDS011;56352;55.750;13.198;2024-01-07T05:34:07;1.60;;;0.82;;
69240;SDS011;56352;55.750;13.198;2024-01-07T05:36:34;1.98;;;1.02;;
69240;SDS011;56352;55.750;13.198;2024-01-07T05:39:01;1.90;;;1.10;;
69240;SDS011;56352;55.750;13.198;2024-01-07T05:41:28;2.97;;;1.25;;
69240;SDS011;56352;55.750;13.198;2024-01-07T05:43:54;1.48;;;0.93;;
69240;SDS011;56352;55.750;13.198;2024-01-07T05:46:21;2.75;;;1.45;;
69240;SDS011;56352;55.750;13.198;2024-01-07T05:48:48;1.35;;;0.90;;
69240;SDS011;56352;55.750;13.198;2024-01-07T05:51:16;3.10;;;1.27;;
69240;SDS011;56352;55.750;13.198;2024-01-07T05:53:43;1.60;;;0.82;;
69240;SDS011;56352;55.750;13.198;2024-01-07T05:56:10;2.00;;;0.90;;
69240;SDS011;56352;55.750;13.198;2024-01-07T05:58:37;4.55;;;1.75;;
69240;SDS011;56352;55.750;13.198;2024-01-07T06:01:04;4.15;;;1.88;;
69240;SDS011;56352;55.750;13.198;2024-01-07T06:03:30;14.63;;;5.30;;
69240;SDS011;56352;55.750;13.198;2024-01-07T06:05:57;22.88;;;7.47;;
69240;SDS011;56352;55.750;13.198;2024-01-07T06:08:26;34.08;;;10.25;;
69240;SDS011;56352;55.750;13.198;2024-01-07T06:10:52;32.55;;;10.75;;
69240;SDS011;56352;55.750;13.198;2024-01-07T06:13:22;19.90;;;7.85;;
69240;SDS011;56352;55.750;13.198;2024-01-07T06:15:49;16.17;;;5.80;;
69240;SDS011;56352;55.750;13.198;2024-01-07T06:18:16;12.35;;;4.47;;
69240;SDS011;56352;55.750;13.198;2024-01-07T06:20:43;4.63;;;2.53;;
69240;SDS011;56352;55.750;13.198;2024-01-07T06:23:09;4.57;;;1.90;;
69240;SDS011;56352;55.750;13.198;2024-01-07T06:25:36;2.35;;;1.40;;
69240;SDS011;56352;55.750;13.198;2024-01-07T06:28:03;3.33;;;1.67;;
69240;SDS011;56352;55.750;13.198;2024-01-07T06:30:30;2.60;;;1.20;;
69240;SDS011;56352;55.750;13.198;2024-01-07T06:32:57;3.60;;;1.10;;
69240;SDS011;56352;55.750;13.198;2024-01-07T06:35:24;1.85;;;1.00;;
69240;SDS011;56352;55.750;13.198;2024-01-07T06:37:50;1.27;;;1.02;;
69240;SDS011;56352;55.750;13.198;2024-01-07T06:40:17;1.95;;;1.10;;
69240;SDS011;56352;55.750;13.198;2024-01-07T06:42:45;2.30;;;1.17;;
69240;SDS011;56352;55.750;13.198;2024-01-07T06:45:12;1.58;;;0.93;;
69240;SDS011;56352;55.750;13.198;2024-01-07T06:47:38;2.28;;;1.00;;
69240;SDS011;56352;55.750;13.198;2024-01-07T06:50:05;2.13;;;1.50;;
69240;SDS011;56352;55.750;13.198;2024-01-07T06:52:32;1.70;;;1.08;;
69240;SDS011;56352;55.750;13.198;2024-01-07T06:54:59;2.35;;;1.50;;
69240;SDS011;56352;55.750;13.198;2024-01-07T06:57:26;1.70;;;0.98;;
69240;SDS011;56352;55.750;13.198;2024-01-07T06:59:53;1.27;;;0.88;;
69240;SDS011;56352;55.750;13.198;2024-01-07T07:02:20;1.92;;;0.93;;
69240;SDS011;56352;55.750;13.198;2024-01-07T07:04:47;3.53;;;1.60;;
69240;SDS011;56352;55.750;13.198;2024-01-07T07:07:15;3.58;;;1.20;;
69240;SDS011;56352;55.750;13.198;2024-01-07T07:09:41;2.63;;;1.52;;
69240;SDS011;56352;55.750;13.198;2024-01-07T07:12:08;2.55;;;1.48;;
69240;SDS011;56352;55.750;13.198;2024-01-07T07:14:35;3.20;;;1.60;;
69240;SDS011;56352;55.750;13.198;2024-01-07T07:17:01;2.90;;;1.48;;
69240;SDS011;56352;55.750;13.198;2024-01-07T07:19:29;4.15;;;1.60;;
69240;SDS011;56352;55.750;13.198;2024-01-07T07:21:56;2.92;;;1.75;;
69240;SDS011;56352;55.750;13.198;2024-01-07T07:24:23;2.65;;;1.40;;
69240;SDS011;56352;55.750;13.198;2024-01-07T07:26:50;2.28;;;1.48;;
69240;SDS011;56352;55.750;13.198;2024-01-07T07:29:16;2.05;;;1.35;;
69240;SDS011;56352;55.750;13.198;2024-01-07T07:31:43;2.92;;;1.50;;
69240;SDS011;56352;55.750;13.198;2024-01-07T07:34:10;3.53;;;1.85;;
69240;SDS011;56352;55.750;13.198;2024-01-07T07:36:38;5.05;;;2.08;;
69240;SDS011;56352;55.750;13.198;2024-01-07T07:39:07;3.13;;;1.70;;
69240;SDS011;56352;55.750;13.198;2024-01-07T07:41:34;2.92;;;1.45;;
69240;SDS011;56352;55.750;13.198;2024-01-07T07:44:00;2.63;;;1.70;;
69240;SDS011;56352;55.750;13.198;2024-01-07T07:46:27;1.83;;;1.27;;
69240;SDS011;56352;55.750;13.198;2024-01-07T07:48:54;2.65;;;1.70;;
69240;SDS011;56352;55.750;13.198;2024-01-07T07:51:20;2.67;;;1.67;;
69240;SDS011;56352;55.750;13.198;2024-01-07T07:53:47;2.65;;;1.58;;
69240;SDS011;56352;55.750;13.198;2024-01-07T07:56:14;3.70;;;1.80;;
69240;SDS011;56352;55.750;13.198;2024-01-07T07:58:41;4.43;;;1.90;;
69240;SDS011;56352;55.750;13.198;2024-01-07T08:01:07;3.78;;;1.58;;
69240;SDS011;56352;55.750;13.198;2024-01-07T08:03:34;2.65;;;1.45;;
69240;SDS011;56352;55.750;13.198;2024-01-07T08:06:03;3.63;;;1.97;;
69240;SDS011;56352;55.750;13.198;2024-01-07T08:08:30;3.25;;;2.05;;
69240;SDS011;56352;55.750;13.198;2024-01-07T08:10:57;3.47;;;2.00;;
69240;SDS011;56352;55.750;13.198;2024-01-07T08:13:24;3.10;;;1.85;;
69240;SDS011;56352;55.750;13.198;2024-01-07T08:15:50;3.55;;;1.73;;
69240;SDS011;56352;55.750;13.198;2024-01-07T08:18:17;7.45;;;1.70;;
69240;SDS011;56352;55.750;13.198;2024-01-07T08:20:47;3.53;;;1.90;;
69240;SDS011;56352;55.750;13.198;2024-01-07T08:23:14;4.28;;;1.92;;
69240;SDS011;56352;55.750;13.198;2024-01-07T08:25:40;3.75;;;2.05;;
69240;SDS011;56352;55.750;13.198;2024-01-07T08:28:07;4.10;;;1.95;;
69240;SDS011;56352;55.750;13.198;2024-01-07T08:30:34;3.67;;;1.80;;
69240;SDS011;56352;55.750;13.198;2024-01-07T08:33:01;3.00;;;1.83;;
69240;SDS011;56352;55.750;13.198;2024-01-07T08:35:28;2.90;;;1.80;;
69240;SDS011;56352;55.750;13.198;2024-01-07T08:37:55;3.50;;;1.70;;
69240;SDS011;56352;55.750;13.198;2024-01-07T08:40:21;3.20;;;1.60;;
69240;SDS011;56352;55.750;13.198;2024-01-07T08:42:48;2.90;;;1.90;;
69240;SDS011;56352;55.750;13.198;2024-01-07T08:45:15;3.47;;;2.08;;
69240;SDS011;56352;55.750;13.198;2024-01-07T08:47:42;5.18;;;2.22;;
69240;SDS011;56352;55.750;13.198;2024-01-07T08:50:10;2.97;;;2.22;;
69240;SDS011;56352;55.750;13.198;2024-01-07T08:52:39;3.90;;;1.95;;
69240;SDS011;56352;55.750;13.198;2024-01-07T08:55:06;2.63;;;1.73;;
69240;SDS011;56352;55.750;13.198;2024-01-07T08:57:36;2.88;;;1.77;;
69240;SDS011;56352;55.750;13.198;2024-01-07T09:00:05;2.50;;;1.90;;
69240;SDS011;56352;55.750;13.198;2024-01-07T09:02:34;4.15;;;1.95;;
69240;SDS011;56352;55.750;13.198;2024-01-07T09:05:06;2.97;;;1.52;;
69240;SDS011;56352;55.750;13.198;2024-01-07T09:07:33;4.22;;;1.92;;
69240;SDS011;56352;55.750;13.198;2024-01-07T09:10:00;6.70;;;2.03;;
69240;SDS011;56352;55.750;13.198;2024-01-07T09:12:27;5.53;;;1.77;;
69240;SDS011;56352;55.750;13.198;2024-01-07T09:14:54;3.33;;;1.98;;
69240;SDS011;56352;55.750;13.198;2024-01-07T09:17:20;5.55;;;2.05;;
69240;SDS011;56352;55.750;13.198;2024-01-07T09:19:48;4.25;;;1.90;;
69240;SDS011;56352;55.750;13.198;2024-01-07T09:22:15;4.22;;;1.88;;
69240;SDS011;56352;55.750;13.198;2024-01-07T09:24:42;2.47;;;1.33;;
69240;SDS011;56352;55.750;13.198;2024-01-07T09:27:09;4.18;;;2.20;;
69240;SDS011;56352;55.750;13.198;2024-01-07T09:29:37;5.40;;;2.33;;
69240;SDS011;56352;55.750;13.198;2024-01-07T09:32:04;3.63;;;2.08;;
69240;SDS011;56352;55.750;13.198;2024-01-07T09:34:31;3.97;;;1.67;;
69240;SDS011;56352;55.750;13.198;2024-01-07T09:36:58;4.45;;;2.05;;
69240;SDS011;56352;55.750;13.198;2024-01-07T09:39:25;3.35;;;1.90;;
69240;SDS011;56352;55.750;13.198;2024-01-07T09:41:52;6.38;;;2.38;;
69240;SDS011;56352;55.750;13.198;2024-01-07T09:44:19;4.68;;;2.05;;
69240;SDS011;56352;55.750;13.198;2024-01-07T09:46:46;4.18;;;2.38;;
69240;SDS011;56352;55.750;13.198;2024-01-07T09:49:21;2.65;;;1.90;;
69240;SDS011;56352;55.750;13.198;2024-01-07T09:51:49;2.78;;;2.13;;
69240;SDS011;56352;55.750;13.198;2024-01-07T09:54:16;4.32;;;2.60;;
69240;SDS011;56352;55.750;13.198;2024-01-07T09:56:48;3.58;;;1.95;;
69240;SDS011;56352;55.750;13.198;2024-01-07T09:59:17;5.55;;;1.83;;
69240;SDS011;56352;55.750;13.198;2024-01-07T10:01:45;4.00;;;2.67;;
69240;SDS011;56352;55.750;13.198;2024-01-07T10:04:13;5.53;;;2.43;;
69240;SDS011;56352;55.750;13.198;2024-01-07T10:06:40;3.80;;;2.15;;
69240;SDS011;56352;55.750;13.198;2024-01-07T10:09:07;4.50;;;2.28;;
69240;SDS011;56352;55.750;13.198;2024-01-07T10:11:34;3.88;;;2.25;;
69240;SDS011;56352;55.750;13.198;2024-01-07T10:14:00;4.53;;;2.25;;
69240;SDS011;56352;55.750;13.198;2024-01-07T10:16:27;3.08;;;2.20;;
69240;SDS011;56352;55.750;13.198;2024-01-07T10:18:54;5.85;;;2.55;;
69240;SDS011;56352;55.750;13.198;2024-01-07T10:21:20;5.00;;;2.63;;
69240;SDS011;56352;55.750;13.198;2024-01-07T10:23:47;8.07;;;2.80;;
69240;SDS011;56352;55.750;13.198;2024-01-07T10:26:14;3.95;;;2.28;;
69240;SDS011;56352;55.750;13.198;2024-01-07T10:28:53;3.53;;;2.08;;
69240;SDS011;56352;55.750;13.198;2024-01-07T10:31:19;3.92;;;2.40;;
69240;SDS011;56352;55.750;13.198;2024-01-07T10:33:46;5.72;;;2.47;;
69240;SDS011;56352;55.750;13.198;2024-01-07T10:36:13;4.63;;;2.28;;
69240;SDS011;56352;55.750;13.198;2024-01-07T10:38:40;5.75;;;2.42;;
69240;SDS011;56352;55.750;13.198;2024-01-07T10:43:38;3.08;;;2.05;;
69240;SDS011;56352;55.750;13.198;2024-01-07T10:46:06;3.08;;;1.92;;
69240;SDS011;56352;55.750;13.198;2024-01-07T10:48:37;6.32;;;2.50;;
69240;SDS011;56352;55.750;13.198;2024-01-07T10:51:05;5.13;;;2.22;;
69240;SDS011;56352;55.750;13.198;2024-01-07T10:53:33;3.88;;;2.47;;
69240;SDS011;56352;55.750;13.198;2024-01-07T10:56:03;5.13;;;2.72;;
69240;SDS011;56352;55.750;13.198;2024-01-07T10:58:32;4.95;;;2.95;;
69240;SDS011;56352;55.750;13.198;2024-01-07T11:01:00;7.03;;;2.75;;
69240;SDS011;56352;55.750;13.198;2024-01-07T11:04:32;5.32;;;2.50;;
69240;SDS011;56352;55.750;13.198;2024-01-07T11:09:43;4.40;;;2.45;;
69240;SDS011;56352;55.750;13.198;2024-01-07T11:12:18;3.95;;;2.55;;
69240;SDS011;56352;55.750;13.198;2024-01-07T11:14:45;5.25;;;2.58;;
69240;SDS011;56352;55.750;13.198;2024-01-07T11:20:06;5.82;;;2.78;;
69240;SDS011;56352;55.750;13.198;2024-01-07T11:22:37;4.10;;;2.53;;
69240;SDS011;56352;55.750;13.198;2024-01-07T11:25:20;5.13;;;2.40;;
69240;SDS011;56352;55.750;13.198;2024-01-07T11:27:56;4.82;;;3.05;;
69240;SDS011;56352;55.750;13.198;2024-01-07T11:30:27;5.10;;;3.35;;
69240;SDS011;56352;55.750;13.198;2024-01-07T11:32:57;6.60;;;2.92;;
69240;SDS011;56352;55.750;13.198;2024-01-07T11:38:26;8.23;;;3.20;;
69240;SDS011;56352;55.750;13.198;2024-01-07T11:40:53;8.00;;;3.08;;
69240;SDS011;56352;55.750;13.198;2024-01-07T11:43:21;5.85;;;2.75;;
69240;SDS011;56352;55.750;13.198;2024-01-07T11:45:51;5.72;;;3.00;;
69240;SDS011;56352;55.750;13.198;2024-01-07T11:48:18;5.90;;;3.05;;
69240;SDS011;56352;55.750;13.198;2024-01-07T11:50:45;5.18;;;2.85;;
69240;SDS011;56352;55.750;13.198;2024-01-07T11:53:15;4.10;;;2.70;;
69240;SDS011;56352;55.750;13.198;2024-01-07T11:55:42;7.25;;;3.25;;
69240;SDS011;56352;55.750;13.198;2024-01-07T11:58:09;3.95;;;2.80;;
69240;SDS011;56352;55.750;13.198;2024-01-07T12:00:36;3.35;;;2.20;;
69240;SDS011;56352;55.750;13.198;2024-01-07T12:03:03;6.47;;;2.55;;
69240;SDS011;56352;55.750;13.198;2024-01-07T12:05:30;7.38;;;3.08;;
69240;SDS011;56352;55.750;13.198;2024-01-07T12:07:57;5.53;;;2.53;;
69240;SDS011;56352;55.750;13.198;2024-01-07T12:10:23;5.57;;;2.85;;
69240;SDS011;56352;55.750;13.198;2024-01-07T12:12:50;5.10;;;2.60;;
69240;SDS011;56352;55.750;13.198;2024-01-07T12:15:18;8.10;;;2.97;;
69240;SDS011;56352;55.750;13.198;2024-01-07T12:17:56;5.18;;;2.25;;
69240;SDS011;56352;55.750;13.198;2024-01-07T12:20:28;3.58;;;2.25;;
69240;SDS011;56352;55.750;13.198;2024-01-07T12:23:07;5.18;;;2.70;;
69240;SDS011;56352;55.750;13.198;2024-01-07T12:25:35;4.20;;;2.83;;
69240;SDS011;56352;55.750;13.198;2024-01-07T12:28:02;4.65;;;3.00;;
69240;SDS011;56352;55.750;13.198;2024-01-07T12:30:29;5.72;;;2.63;;
69240;SDS011;56352;55.750;13.198;2024-01-07T12:32:57;5.55;;;3.08;;
69240;SDS011;56352;55.750;13.198;2024-01-07T12:35:27;4.65;;;3.00;;
69240;SDS011;56352;55.750;13.198;2024-01-07T12:37:54;6.43;;;3.38;;
69240;SDS011;56352;55.750;13.198;2024-01-07T12:40:22;6.55;;;3.50;;
69240;SDS011;56352;55.750;13.198;2024-01-07T12:42:51;6.05;;;2.97;;
69240;SDS011;56352;55.750;13.198;2024-01-07T12:45:18;6.40;;;2.80;;
69240;SDS011;56352;55.750;13.198;2024-01-07T12:47:44;6.63;;;3.47;;
69240;SDS011;56352;55.750;13.198;2024-01-07T12:50:13;7.88;;;4.28;;
69240;SDS011;56352;55.750;13.198;2024-01-07T12:52:39;6.68;;;3.83;;
69240;SDS011;56352;55.750;13.198;2024-01-07T12:55:07;5.18;;;3.38;;
69240;SDS011;56352;55.750;13.198;2024-01-07T12:57:34;6.55;;;3.50;;
69240;SDS011;56352;55.750;13.198;2024-01-07T13:00:02;6.88;;;3.42;;
69240;SDS011;56352;55.750;13.198;2024-01-07T13:02:33;7.90;;;3.80;;
69240;SDS011;56352;55.750;13.198;2024-01-07T13:05:01;7.05;;;3.35;;
69240;SDS011;56352;55.750;13.198;2024-01-07T13:07:29;7.22;;;3.38;;
69240;SDS011;56352;55.750;13.198;2024-01-07T13:09:56;5.13;;;2.90;;
69240;SDS011;56352;55.750;13.198;2024-01-07T13:12:23;5.85;;;3.55;;
69240;SDS011;56352;55.750;13.198;2024-01-07T13:15:01;5.28;;;2.97;;
69240;SDS011;56352;55.750;13.198;2024-01-07T13:17:28;5.70;;;3.58;;
69240;SDS011;56352;55.750;13.198;2024-01-07T13:19:56;7.63;;;3.13;;
69240;SDS011;56352;55.750;13.198;2024-01-07T13:22:23;7.85;;;2.95;;
69240;SDS011;56352;55.750;13.198;2024-01-07T13:24:50;5.65;;;3.22;;
69240;SDS011;56352;55.750;13.198;2024-01-07T13:27:17;5.00;;;2.88;;
69240;SDS011;56352;55.750;13.198;2024-01-07T13:29:45;4.38;;;2.80;;
69240;SDS011;56352;55.750;13.198;2024-01-07T13:32:14;5.10;;;2.88;;
69240;SDS011;56352;55.750;13.198;2024-01-07T13:34:45;5.18;;;3.08;;
69240;SDS011;56352;55.750;13.198;2024-01-07T13:37:12;5.50;;;2.72;;
69240;SDS011;56352;55.750;13.198;2024-01-07T13:39:39;5.82;;;3.13;;
69240;SDS011;56352;55.750;13.198;2024-01-07T13:42:06;5.72;;;3.00;;
69240;SDS011;56352;55.750;13.198;2024-01-07T13:44:32;5.15;;;3.08;;
69240;SDS011;56352;55.750;13.198;2024-01-07T13:47:01;4.13;;;2.22;;
69240;SDS011;56352;55.750;13.198;2024-01-07T13:49:28;4.63;;;2.70;;
69240;SDS011;56352;55.750;13.198;2024-01-07T13:51:54;8.07;;;2.85;;
69240;SDS011;56352;55.750;13.198;2024-01-07T13:54:21;5.95;;;3.30;;
69240;SDS011;56352;55.750;13.198;2024-01-07T13:56:48;7.53;;;3.22;;
69240;SDS011;56352;55.750;13.198;2024-01-07T13:59:15;3.60;;;2.53;;
69240;SDS011;56352;55.750;13.198;2024-01-07T14:01:44;4.82;;;2.55;;
69240;SDS011;56352;55.750;13.198;2024-01-07T14:04:10;5.43;;;2.53;;
69240;SDS011;56352;55.750;13.198;2024-01-07T14:06:37;5.13;;;2.70;;
69240;SDS011;56352;55.750;13.198;2024-01-07T14:09:04;5.60;;;3.10;;
69240;SDS011;56352;55.750;13.198;2024-01-07T14:11:32;7.15;;;3.22;;
69240;SDS011;56352;55.750;13.198;2024-01-07T14:13:59;5.15;;;3.28;;
69240;SDS011;56352;55.750;13.198;2024-01-07T14:16:27;4.65;;;2.67;;
69240;SDS011;56352;55.750;13.198;2024-01-07T14:18:54;4.97;;;3.10;;
69240;SDS011;56352;55.750;13.198;2024-01-07T14:21:21;6.85;;;3.40;;
69240;SDS011;56352;55.750;13.198;2024-01-07T14:23:48;5.25;;;2.63;;
69240;SDS011;56352;55.750;13.198;2024-01-07T14:26:14;5.82;;;2.80;;
69240;SDS011;56352;55.750;13.198;2024-01-07T14:28:41;5.88;;;3.15;;
69240;SDS011;56352;55.750;13.198;2024-01-07T14:31:07;7.10;;;3.30;;
69240;SDS011;56352;55.750;13.198;2024-01-07T14:33:34;6.03;;;2.92;;
69240;SDS011;56352;55.750;13.198;2024-01-07T14:36:04;5.43;;;3.28;;
69240;SDS011;56352;55.750;13.198;2024-01-07T14:38:31;6.00;;;3.00;;
69240;SDS011;56352;55.750;13.198;2024-01-07T14:40:58;7.55;;;3.15;;
69240;SDS011;56352;55.750;13.198;2024-01-07T14:43:26;6.18;;;3.38;;
69240;SDS011;56352;55.750;13.198;2024-01-07T14:45:53;6.80;;;3.13;;